Time;durP1;ratioP1;P1;durP2;ratioP2;P2;SDS_P1;SDS_P2;PMS_P1;PMS_P2;Temp;Humidity;BMP_temperature;BMP_pressure;BME280_temperature;BME280_humidity;BME280_pressure;Samples;Min_cycle;Max_cycle;Signal;HPM_P1;HPM_P2
2021/08/24 05:41:13;;;;;;;9.98;4.15;;;;;;;17.00;61.23;100013.00;4842460;29;20058;-88
2021/08/24 05:43:40;;;;;;;15.25;4.43;;;;;;;17.05;60.79;99998.97;4841683;29;20058;-89
2021/08/24 05:46:09;;;;;;;13.33;3.70;;;;;;;17.21;60.42;100020.44;4843177;29;20045;-88
2021/08/24 05:48:36;;;;;;;13.77;4.60;;;;;;;17.20;60.93;100014.09;4842772;29;20038;-87
2021/08/24 05:51:08;;;;;;;9.93;3.00;;;;;;;17.31;59.61;100011.72;4843043;29;20054;-88
2021/08/24 05:53:35;;;;;;;8.95;2.38;;;;;;;17.28;58.84;100009.63;4842444;29;20057;-88
2021/08/24 05:56:01;;;;;;;6.10;2.95;;;;;;;17.36;59.44;100005.97;4840597;29;20153;-87
2021/08/24 05:58:28;;;;;;;14.50;2.80;;;;;;;17.29;58.18;99980.88;4841712;29;20053;-87
2021/08/24 06:00:55;;;;;;;19.60;2.65;;;;;;;17.41;57.84;99988.38;4842306;29;20049;-90
2021/08/24 06:03:24;;;;;;;4.60;2.00;;;;;;;17.62;57.70;100008.47;4857035;29;20046;-93
2021/08/24 06:05:50;;;;;;;6.18;2.95;;;;;;;17.58;57.81;99996.44;4843669;29;20126;-92
2021/08/24 06:08:16;;;;;;;4.28;2.45;;;;;;;17.47;56.22;99971.22;4826930;29;20042;-90
2021/08/24 06:10:43;;;;;;;9.15;3.65;;;;;;;17.67;57.33;99993.59;4826178;29;20052;-90
2021/08/24 06:13:09;;;;;;;8.48;3.40;;;;;;;17.71;57.07;99980.69;4842899;29;20050;-95
2021/08/24 06:15:35;;;;;;;9.77;3.40;;;;;;;17.75;57.00;99987.97;4827185;29;20149;-87
2021/08/24 06:18:02;;;;;;;;;;;;;;;17.94;56.93;100006.78;4858591;29;20050;-92
2021/08/24 06:20:29;;;;;;;29.83;3.50;;;;;;;17.91;56.97;100001.94;4857653;29;19931;-93
2021/08/24 06:22:55;;;;;;;7.18;2.70;;;;;;;17.87;55.95;99992.72;4852713;29;20049;-85
2021/08/24 06:25:22;;;;;;;55.97;12.00;;;;;;;17.97;56.75;100005.28;4849310;29;20046;-84
2021/08/24 06:27:51;;;;;;;45.13;21.60;;;;;;;18.15;56.62;100016.94;4843235;29;20042;-84
2021/08/24 06:30:20;;;;;;;104.93;60.60;;;;;;;18.00;55.64;99991.56;4868865;29;20109;-87
2021/08/24 06:32:53;;;;;;;58.38;30.65;;;;;;;18.13;55.81;100000.66;4842989;29;20038;-93
2021/08/24 06:35:21;;;;;;;94.28;58.33;;;;;;;18.31;56.07;100018.66;4826088;29;20051;-84
2021/08/24 06:37:47;;;;;;;32.13;15.60;;;;;;;18.28;55.35;99999.16;4842306;29;20042;-88
2021/08/24 06:40:17;;;;;;;27.65;13.32;;;;;;;18.54;54.57;100030.03;4825700;29;20106;-90
2021/08/24 06:42:49;;;;;;;15.05;5.90;;;;;;;18.38;55.97;99972.97;4843030;29;20056;-90
2021/08/24 06:45:24;;;;;;;13.18;6.72;;;;;;;18.51;54.03;99997.50;4815410;29;20064;-92
2021/08/24 06:47:50;;;;;;;17.95;5.63;;;;;;;18.61;53.71;100006.47;4833650;29;20526;-90
2021/08/24 06:50:17;;;;;;;15.02;3.95;;;;;;;18.72;53.03;100008.44;4861047;29;20052;-90
2021/08/24 06:52:44;;;;;;;12.73;3.53;;;;;;;18.63;52.73;99987.53;4826334;29;20435;-91
2021/08/24 06:55:12;;;;;;;11.63;6.07;;;;;;;18.95;54.96;100017.03;4842464;29;20518;-87
2021/08/24 06:57:41;;;;;;;13.75;2.92;;;;;;;19.01;52.20;100007.31;4842567;29;20056;-87
2021/08/24 07:00:14;;;;;;;9.25;3.28;;;;;;;19.14;52.44;100026.63;4858719;29;20049;-86
2021/08/24 07:02:40;;;;;;;7.30;2.47;;;;;;;19.12;51.71;100007.59;4852436;29;20054;-87
2021/08/24 07:05:09;;;;;;;9.48;4.90;;;;;;;19.26;51.26;100009.94;4845048;29;20045;-88
2021/08/24 07:07:35;;;;;;;10.40;4.25;;;;;;;19.24;52.38;99984.56;4847826;29;20469;-87
2021/08/24 07:10:01;;;;;;;13.73;3.23;;;;;;;19.25;50.85;99973.09;4845409;29;20042;-88
2021/08/24 07:12:27;;;;;;;17.02;3.63;;;;;;;19.35;51.77;99959.91;4866634;29;20093;-88
2021/08/24 07:14:53;;;;;;;10.70;2.87;;;;;;;19.77;49.95;100026.78;4869076;29;20458;-92
2021/08/24 07:17:23;;;;;;;25.73;3.35;;;;;;;19.84;51.03;100023.38;4844145;29;20057;-88
2021/08/24 07:19:51;;;;;;;10.15;2.80;;;;;;;19.88;50.73;100016.75;4853087;29;20170;-88
2021/08/24 07:22:20;;;;;;;15.48;4.38;;;;;;;20.12;50.46;100023.25;4844170;29;20042;-80
2021/08/24 07:24:46;;;;;;;16.90;3.33;;;;;;;20.29;49.42;100022.88;4841971;29;20073;-82
2021/08/24 07:27:15;;;;;;;8.05;2.55;;;;;;;20.50;47.56;100027.34;4851449;29;20105;-82
2021/08/24 07:29:41;;;;;;;14.52;3.72;;;;;;;20.59;50.00;100023.19;4852760;29;20074;-90
2021/08/24 07:32:09;;;;;;;11.82;3.30;;;;;;;20.63;49.66;100026.06;4842047;29;20056;-81
2021/08/24 07:34:37;;;;;;;11.95;2.95;;;;;;;20.73;45.43;100025.50;4842552;29;20094;-91
2021/08/24 07:37:05;;;;;;;7.60;2.28;;;;;;;20.72;44.83;100021.09;4841420;29;20045;-80
2021/08/24 07:39:31;;;;;;;7.00;3.00;;;;;;;20.76;44.26;100029.50;4850367;29;20058;-78
2021/08/24 07:41:58;;;;;;;7.47;2.42;;;;;;;20.70;43.56;100017.88;4859281;29;20052;-88
2021/08/24 07:44:26;;;;;;;11.23;2.75;;;;;;;20.97;45.47;100018.03;4842245;29;20140;-87
2021/08/24 07:46:52;;;;;;;9.02;1.95;;;;;;;20.98;45.47;100020.44;4842501;29;20082;-92
2021/08/24 07:49:18;;;;;;;8.68;2.70;;;;;;;21.06;43.57;100015.84;4842772;29;20110;-86
2021/08/24 07:51:45;;;;;;;17.83;2.53;;;;;;;21.10;41.27;100022.28;4841583;29;20670;-95
2021/08/24 07:54:11;;;;;;;9.90;2.47;;;;;;;21.15;43.96;100016.41;4841701;29;20049;-92
2021/08/24 07:56:37;;;;;;;9.95;2.20;;;;;;;20.95;41.30;100010.06;4853743;29;20065;-93
2021/08/24 07:59:03;;;;;;;5.63;1.90;;;;;;;20.88;41.57;100026.59;4849839;29;20584;-96
2021/08/24 08:01:31;;;;;;;8.85;2.72;;;;;;;20.60;41.53;100001.78;4859296;29;20041;-96
2021/08/24 08:03:57;;;;;;;15.20;3.65;;;;;;;20.63;41.28;100028.84;4843199;29;20046;-90
2021/08/24 08:06:25;;;;;;;20.15;3.33;;;;;;;20.47;41.27;100001.09;4847584;29;20056;-88
2021/08/24 08:08:52;;;;;;;11.27;2.33;;;;;;;20.30;41.72;99993.97;4837658;29;20034;-89
2021/08/24 08:11:19;;;;;;;6.68;2.50;;;;;;;20.36;42.73;100022.22;4848906;29;20161;-89
2021/08/24 08:13:45;;;;;;;13.90;2.77;;;;;;;20.24;42.24;100016.81;4848253;29;20602;-80
2021/08/24 08:16:11;;;;;;;;;;;;;;;20.31;45.08;100017.78;4842225;29;20436;-82
2021/08/24 08:18:37;;;;;;;8.67;2.70;;;;;;;20.23;41.94;100001.31;4846650;29;19948;-87
2021/08/24 08:21:03;;;;;;;11.63;2.30;;;;;;;20.55;44.44;100013.97;4842529;29;20298;-83
2021/08/24 08:23:29;;;;;;;12.67;2.80;;;;;;;20.66;41.35;100008.66;4842292;29;20046;-84
2021/08/24 08:25:59;;;;;;;14.90;4.25;;;;;;;20.61;41.55;100000.63;4844372;29;20580;-84
2021/08/24 08:28:30;;;;;;;39.78;3.83;;;;;;;20.56;40.86;100009.22;4842232;29;20042;-86
2021/08/24 08:30:56;;;;;;;22.10;4.20;;;;;;;20.73;45.70;100006.06;4857361;29;20380;-83
2021/08/24 08:33:22;;;;;;;8.43;2.80;;;;;;;20.85;39.34;99994.78;4847597;29;20070;-87
2021/08/24 08:35:48;;;;;;;16.15;3.33;;;;;;;20.92;41.96;99979.41;4852120;29;20053;-85
2021/08/24 08:38:14;;;;;;;7.17;3.20;;;;;;;20.83;37.29;99979.66;4843778;29;20101;-86
2021/08/24 08:40:52;;;;;;;16.45;3.28;;;;;;;20.80;38.52;99995.06;4845432;29;20054;-86
2021/08/24 08:43:21;;;;;;;10.63;3.05;;;;;;;20.98;38.90;99989.06;4857848;29;20042;-83
2021/08/24 08:45:50;;;;;;;8.50;3.08;;;;;;;21.22;41.97;99982.38;4854671;29;20041;-84
2021/08/24 08:48:25;;;;;;;10.02;3.50;;;;;;;21.32;37.68;99985.38;4842241;29;20038;-82
2021/08/24 08:50:58;;;;;;;16.38;4.20;;;;;;;21.35;38.94;99989.41;4842156;29;20190;-84
2021/08/24 08:54:04;;;;;;;10.30;3.05;;;;;;;21.23;38.43;99978.44;4853662;29;20500;-85
2021/08/24 08:57:02;;;;;;;7.00;3.63;;;;;;;21.46;44.16;99984.06;4853765;29;20037;-84
2021/08/24 08:59:34;;;;;;;11.90;3.70;;;;;;;21.38;36.79;99979.53;4857302;29;20046;-84
2021/08/24 09:02:20;;;;;;;10.98;3.85;;;;;;;21.53;41.97;99984.97;4841858;29;20125;-87
2021/08/24 09:04:47;;;;;;;18.35;6.25;;;;;;;21.32;36.47;99974.25;4853365;29;20041;-86
2021/08/24 09:07:29;;;;;;;14.10;4.70;;;;;;;21.26;37.19;99967.38;4848102;29;20037;-84
2021/08/24 09:09:56;;;;;;;12.45;4.45;;;;;;;21.29;37.96;99949.97;4856844;29;20061;-84
2021/08/24 09:12:23;;;;;;;6.25;2.97;;;;;;;21.59;42.19;99988.28;4845937;29;20038;-83
2021/08/24 09:14:55;;;;;;;15.05;3.60;;;;;;;21.50;36.96;99973.78;4858877;29;20047;-79
2021/08/24 09:17:32;;;;;;;11.32;3.28;;;;;;;21.66;37.03;99990.38;4846902;29;20060;-80
2021/08/24 09:20:05;;;;;;;12.15;3.38;;;;;;;21.70;34.58;99986.47;4845976;29;20069;-81
2021/08/24 09:22:32;;;;;;;7.07;3.78;;;;;;;21.75;35.85;99994.47;4845657;29;20084;-83
2021/08/24 09:24:58;;;;;;;14.10;3.38;;;;;;;21.70;36.70;99994.00;4842997;29;20049;-82
2021/08/24 09:27:51;;;;;;;11.27;3.10;;;;;;;21.65;37.06;99986.75;4842802;29;20525;-84
2021/08/24 09:30:18;;;;;;;7.00;3.30;;;;;;;21.68;36.57;99983.22;4860205;29;20128;-81
2021/08/24 09:33:05;;;;;;;9.73;3.15;;;;;;;21.66;35.04;99974.47;4861084;29;20507;-82
2021/08/24 09:35:35;;;;;;;7.07;3.00;;;;;;;21.80;34.41;99976.69;4861667;29;20049;-80
2021/08/24 09:38:31;;;;;;;10.15;3.00;;;;;;;21.95;38.99;99981.31;4843119;29;20094;-78
2021/08/24 09:41:00;;;;;;;24.30;3.92;;;;;;;21.95;33.53;99980.50;4835201;29;20058;-82
2021/08/24 09:43:34;;;;;;;8.52;3.10;;;;;;;21.84;32.13;99979.53;4843635;29;20054;-82
2021/08/24 09:46:33;;;;;;;11.95;3.40;;;;;;;21.71;32.29;99976.94;4841944;29;20041;-84
2021/08/24 09:49:23;;;;;;;14.35;3.22;;;;;;;21.59;33.40;99979.94;4842322;29;20041;-84
2021/08/24 09:52:04;;;;;;;11.23;3.08;;;;;;;21.53;33.82;99981.41;4846337;29;20515;-93
2021/08/24 09:54:33;;;;;;;16.88;4.05;;;;;;;21.48;35.47;99982.50;4852635;29;20049;-89
2021/08/24 09:57:10;;;;;;;7.45;3.38;;;;;;;21.46;35.30;99978.50;4854144;29;20048;-80
2021/08/24 10:00:08;;;;;;;10.77;3.45;;;;;;;21.43;35.04;99973.66;4843042;29;20053;-80
2021/08/24 10:02:43;;;;;;;13.98;6.68;;;;;;;21.55;35.57;99976.25;4829094;29;20057;-78
2021/08/24 10:05:20;;;;;;;9.57;3.88;;;;;;;21.52;34.85;99980.59;4843351;29;20050;-77
2021/08/24 10:07:50;;;;;;;20.20;3.95;;;;;;;21.51;36.47;99978.19;4844181;29;20057;-79
2021/08/24 10:10:24;;;;;;;10.23;3.05;;;;;;;21.55;35.63;99981.81;4825699;29;20043;-79
2021/08/24 10:12:52;;;;;;;5.93;3.30;;;;;;;21.38;36.44;99962.84;4842901;29;20084;-82
2021/08/24 10:15:32;;;;;;;9.07;3.95;;;;;;;21.60;38.25;99987.09;4842814;29;20086;-79
2021/08/24 10:18:07;;;;;;;19.98;3.55;;;;;;;21.67;38.17;99983.63;4823562;29;20196;-90
2021/08/24 10:21:02;;;;;;;7.75;3.00;;;;;;;21.04;34.41;99918.09;4825469;29;20050;-92
2021/08/24 10:23:37;;;;;;;11.85;3.75;;;;;;;21.27;35.62;99996.00;4808169;29;20200;-90
2021/08/24 10:26:06;;;;;;;7.38;3.42;;;;;;;20.73;35.49;99925.47;4827029;29;20085;-93
2021/08/24 10:28:48;;;;;;;9.88;2.97;;;;;;;21.15;36.20;99985.81;4843983;29;20536;-89
2021/08/24 10:31:27;;;;;;;7.50;3.50;;;;;;;21.33;36.61;100000.88;4839232;29;20501;-88
2021/08/24 10:34:02;;;;;;;9.88;3.83;;;;;;;21.42;35.56;99947.00;4841973;29;20061;-90
2021/08/24 10:36:43;;;;;;;8.25;3.08;;;;;;;21.69;31.99;99962.59;4840797;29;20049;-89
2021/08/24 10:39:28;;;;;;;7.47;3.38;;;;;;;22.27;32.93;99978.22;4836808;29;20053;-86
2021/08/24 10:42:19;;;;;;;12.30;3.33;;;;;;;22.10;30.62;99926.63;4841474;29;20182;-91
2021/08/24 10:45:00;;;;;;;28.58;4.40;;;;;;;22.41;31.32;99939.41;4857154;29;20046;-89
2021/08/24 10:47:28;;;;;;;18.95;4.53;;;;;;;22.72;34.73;99965.31;4841994;29;20050;-80
2021/08/24 10:49:57;;;;;;;12.13;3.58;;;;;;;22.84;33.68;99975.41;4841694;29;20054;-80
2021/08/24 10:52:40;;;;;;;12.70;3.60;;;;;;;22.85;34.19;99968.66;4841783;29;20045;-81
2021/08/24 10:55:21;;;;;;;20.00;4.80;;;;;;;22.70;34.97;99967.66;4842233;29;20508;-81
2021/08/24 10:58:09;;;;;;;8.30;3.50;;;;;;;22.63;35.11;99973.16;4839935;29;20481;-81
2021/08/24 11:01:01;;;;;;;10.27;4.10;;;;;;;22.55;34.94;99977.84;4843811;29;20049;-81
2021/08/24 11:03:55;;;;;;;23.25;3.72;;;;;;;22.33;35.70;99975.94;4842548;29;20504;-84
2021/08/24 11:06:54;;;;;;;18.77;3.83;;;;;;;22.34;34.80;99966.38;4842311;29;20101;-81
2021/08/24 11:09:46;;;;;;;14.20;3.90;;;;;;;22.05;34.25;99961.19;4837245;29;20468;-81
2021/08/24 11:12:28;;;;;;;16.45;4.40;;;;;;;21.95;36.06;99956.25;4842655;29;20053;-80
2021/08/24 11:15:11;;;;;;;30.20;4.82;;;;;;;22.05;36.16;99935.31;4843178;29;20696;-93
2021/08/24 11:17:58;;;;;;;23.05;4.57;;;;;;;22.16;30.33;99950.22;4843132;29;20050;-81
2021/08/24 11:20:39;;;;;;;41.33;6.78;;;;;;;21.83;29.62;99913.91;4842639;29;20042;-90
2021/08/24 11:23:23;;;;;;;16.75;5.10;;;;;;;21.98;31.09;99954.69;4842686;29;20042;-79
2021/08/24 11:25:59;;;;;;;13.70;4.00;;;;;;;22.32;32.35;99946.44;4843235;29;20038;-88
2021/08/24 11:28:49;;;;;;;14.68;5.80;;;;;;;22.55;33.20;99947.19;4844891;29;20115;-88
2021/08/24 11:31:25;;;;;;;25.55;5.45;;;;;;;22.50;31.78;99948.31;4845712;29;20045;-84
2021/08/24 11:33:57;;;;;;;31.13;5.85;;;;;;;22.27;32.94;99944.81;4843171;29;20054;-82
2021/08/24 11:36:35;;;;;;;25.67;6.72;;;;;;;22.22;33.46;99943.16;4836704;29;20054;-77
2021/08/24 11:39:08;;;;;;;50.63;7.45;;;;;;;22.04;32.65;99928.13;4841227;29;20457;-79
2021/08/24 11:41:37;;;;;;;9.82;4.53;;;;;;;21.91;34.27;99949.81;4841258;29;20048;-77
2021/08/24 11:44:09;;;;;;;12.60;4.38;;;;;;;21.80;33.34;99952.44;4842385;29;20042;-81
2021/08/24 11:46:39;;;;;;;11.20;4.32;;;;;;;21.76;33.05;99946.00;4850262;29;20145;-85
2021/08/24 11:49:16;;;;;;;18.02;4.43;;;;;;;21.79;33.90;99952.81;4840607;29;20500;-79
2021/08/24 11:51:51;;;;;;;15.32;4.53;;;;;;;21.80;33.61;99944.09;4838005;29;20041;-78
2021/08/24 11:54:33;;;;;;;17.33;4.20;;;;;;;21.85;33.72;99942.16;4851851;29;20046;-85
2021/08/24 11:57:22;;;;;;;12.55;4.68;;;;;;;21.97;36.50;99947.53;4840995;29;20126;-82
2021/08/24 11:59:51;;;;;;;13.50;4.10;;;;;;;21.85;34.28;99936.59;4841175;29;20077;-95
2021/08/24 12:02:23;;;;;;;29.98;4.63;;;;;;;21.97;34.85;99923.25;4841959;29;20042;-90
2021/08/24 12:04:53;;;;;;;9.18;3.90;;;;;;;22.11;34.24;99935.78;4845120;29;20041;-79
2021/08/24 12:07:34;;;;;;;9.90;3.70;;;;;;;22.08;35.33;99944.88;4840677;29;20097;-86
2021/08/24 12:10:26;;;;;;;10.77;3.65;;;;;;;22.02;36.46;99939.66;4841595;29;20037;-80
2021/08/24 12:12:57;;;;;;;25.30;5.13;;;;;;;22.04;36.52;99942.06;4828238;29;20045;-87
2021/08/24 12:15:32;;;;;;;23.98;5.03;;;;;;;22.14;36.63;99935.03;4853307;29;20203;-94
2021/08/24 12:18:20;;;;;;;17.38;5.25;;;;;;;22.20;35.15;99931.59;4849751;29;20457;-92
2021/08/24 12:20:51;;;;;;;12.55;5.32;;;;;;;22.32;34.31;99933.34;4843086;29;20037;-86
2021/08/24 12:23:31;;;;;;;14.68;5.35;;;;;;;22.24;33.24;99924.06;4841236;29;20045;-86
2021/08/24 12:25:57;;;;;;;31.13;5.53;;;;;;;22.27;34.81;99936.44;4840630;29;20038;-86
2021/08/24 12:28:23;;;;;;;8.93;4.10;;;;;;;22.26;33.43;99935.66;4840815;29;20053;-89
2021/08/24 12:30:57;;;;;;;;;;;;;;;22.14;33.12;99937.81;4840487;29;20049;-80
2021/08/24 12:33:39;;;;;;;12.55;4.97;;;;;;;22.16;34.46;99939.09;4848379;29;19924;-77
2021/08/24 12:36:24;;;;;;;8.77;4.25;;;;;;;21.99;32.77;99942.41;4850067;29;20079;-77
2021/08/24 12:38:52;;;;;;;9.35;4.43;;;;;;;22.07;36.79;99938.53;4847500;29;20042;-79
2021/08/24 12:41:34;;;;;;;17.00;4.10;;;;;;;22.02;32.77;99938.88;4847485;29;20054;-77
2021/08/24 12:44:12;;;;;;;10.02;4.20;;;;;;;22.00;35.23;99942.00;4849417;29;20076;-78
2021/08/24 12:46:43;;;;;;;13.07;4.18;;;;;;;22.12;34.22;99941.00;4847130;29;20057;-78
2021/08/24 12:49:19;;;;;;;9.10;4.20;;;;;;;22.22;33.44;99931.22;4842881;29;20495;-77
2021/08/24 12:52:05;;;;;;;12.57;4.40;;;;;;;22.37;33.67;99935.00;4842324;29;20504;-77
2021/08/24 12:54:50;;;;;;;11.45;4.50;;;;;;;22.38;32.64;99933.81;4840685;29;20136;-83
2021/08/24 12:57:22;;;;;;;10.63;4.15;;;;;;;22.27;34.33;99934.47;4840789;29;20416;-81
2021/08/24 12:59:52;;;;;;;12.38;4.25;;;;;;;22.18;32.19;99933.94;4840959;29;20041;-89
2021/08/24 13:02:36;;;;;;;14.63;4.90;;;;;;;22.19;35.38;99926.41;4841982;29;20042;-81
2021/08/24 13:05:15;;;;;;;26.77;5.35;;;;;;;22.16;33.14;99929.94;4840943;29;20507;-81
2021/08/24 13:07:48;;;;;;;14.20;4.78;;;;;;;22.23;33.75;99928.03;4840609;29;20058;-91
2021/08/24 13:10:24;;;;;;;14.93;4.95;;;;;;;22.19;33.54;99923.63;4840817;29;20057;-81
2021/08/24 13:12:52;;;;;;;12.55;4.18;;;;;;;22.18;33.27;99914.44;4839528;29;20459;-81
2021/08/24 13:15:39;;;;;;;10.25;4.68;;;;;;;22.13;33.93;99925.09;4840573;29;20098;-82
2021/08/24 13:18:31;;;;;;;14.15;4.40;;;;;;;22.05;33.53;99924.16;4840661;29;20048;-82
2021/08/24 13:21:27;;;;;;;14.43;4.30;;;;;;;22.06;33.79;99923.00;4844360;29;20042;-90
2021/08/24 13:24:01;;;;;;;13.20;4.25;;;;;;;22.14;33.20;99918.34;4842295;29;20087;-82
2021/08/24 13:26:34;;;;;;;16.90;5.22;;;;;;;22.09;35.40;99916.69;4843696;29;20090;-86
2021/08/24 13:29:01;;;;;;;18.80;4.18;;;;;;;21.94;32.19;99907.31;4843619;29;20125;-82
2021/08/24 13:31:46;;;;;;;15.30;4.70;;;;;;;21.79;33.84;99919.44;4843859;29;20045;-82
2021/08/24 13:34:33;;;;;;;8.50;4.40;;;;;;;21.63;35.97;99915.97;4844066;29;20093;-82
2021/08/24 13:36:59;;;;;;;16.10;7.90;;;;;;;21.48;34.17;99895.47;4842867;29;20049;-91
2021/08/24 13:39:26;;;;;;;14.63;6.68;;;;;;;21.47;34.13;99916.91;4843463;29;20061;-82
2021/08/24 13:42:01;;;;;;;9.93;4.38;;;;;;;21.35;35.08;99914.31;4843412;29;20428;-83
2021/08/24 13:44:35;;;;;;;11.02;4.25;;;;;;;21.29;35.37;99913.81;4843695;29;20559;-82
2021/08/24 13:47:05;;;;;;;9.77;4.82;;;;;;;21.39;35.75;99926.31;4843687;29;20053;-82
2021/08/24 13:49:32;;;;;;;11.00;4.82;;;;;;;21.36;36.66;99918.72;4843308;29;20030;-82
2021/08/24 13:52:01;;;;;;;17.25;5.32;;;;;;;21.42;36.93;99925.56;4843513;29;20046;-90
2021/08/24 13:54:30;;;;;;;17.88;5.45;;;;;;;21.52;37.18;99919.41;4843858;29;20077;-83
2021/08/24 13:56:58;;;;;;;10.68;4.10;;;;;;;21.54;37.30;99910.66;4843320;29;20052;-83
2021/08/24 13:59:30;;;;;;;14.73;4.88;;;;;;;21.54;36.18;99914.25;4843537;29;20061;-87
2021/08/24 14:01:57;;;;;;;6.40;3.75;;;;;;;21.51;37.80;99908.63;4843293;29;20045;-82
2021/08/24 14:04:26;;;;;;;12.50;4.15;;;;;;;21.55;38.87;99912.25;4843187;29;20046;-82
2021/08/24 14:07:04;;;;;;;26.83;4.70;;;;;;;21.42;38.72;99913.63;4842505;29;20041;-82
2021/08/24 14:09:48;;;;;;;18.45;4.55;;;;;;;21.56;38.39;99923.03;4841093;29;20058;-90
2021/08/24 14:12:39;;;;;;;14.13;4.80;;;;;;;21.48;38.56;99926.06;4842729;29;20037;-82
2021/08/24 14:15:14;;;;;;;19.25;4.43;;;;;;;21.21;38.12;99919.59;4842868;29;20153;-82
2021/08/24 14:17:52;;;;;;;12.60;4.43;;;;;;;21.18;39.21;99921.13;4841973;29;20526;-80
2021/08/24 14:20:32;;;;;;;38.33;4.35;;;;;;;21.10;39.44;99927.75;4843892;29;20109;-95
2021/08/24 14:23:23;;;;;;;10.57;3.78;;;;;;;20.90;40.61;99903.97;4841917;29;20607;-91
2021/08/24 14:25:53;;;;;;;10.65;3.75;;;;;;;20.98;41.58;99925.13;4842355;29;20046;-88
2021/08/24 14:28:28;;;;;;;11.73;4.70;;;;;;;20.84;41.67;99912.56;4843456;29;20046;-92
2021/08/24 14:30:55;;;;;;;16.92;4.65;;;;;;;20.65;41.35;99902.28;4840696;29;20046;-89
2021/08/24 14:33:26;;;;;;;22.35;4.43;;;;;;;20.71;41.91;99933.34;4825485;29;20189;-88
2021/08/24 14:36:21;;;;;;;16.80;4.30;;;;;;;20.37;41.63;99908.03;4824562;29;20046;-89
2021/08/24 14:38:51;;;;;;;15.63;4.13;;;;;;;20.24;41.40;99891.88;4810440;29;20112;-91
2021/08/24 14:41:24;;;;;;;21.30;4.90;;;;;;;20.05;41.71;99851.03;4848821;29;20045;-91
2021/08/24 14:44:08;;;;;;;31.55;7.20;;;;;;;20.42;41.62;99916.06;4843436;29;20072;-86
2021/08/24 14:46:48;;;;;;;66.55;9.38;;;;;;;20.43;40.54;99936.34;4845492;29;20042;-85
2021/08/24 14:49:46;;;;;;;43.83;6.63;;;;;;;20.30;39.87;99932.88;4842680;29;20066;-93
2021/08/24 14:52:18;;;;;;;43.80;6.70;;;;;;;20.24;39.78;99930.75;4840701;29;20050;-83
2021/08/24 14:54:56;;;;;;;41.58;6.97;;;;;;;20.08;39.29;99916.91;4842040;29;20054;-85
2021/08/24 14:57:41;;;;;;;32.58;6.28;;;;;;;20.12;39.28;99934.44;4841094;29;20042;-84
2021/08/24 15:00:38;;;;;;;50.17;6.40;;;;;;;20.11;39.41;99924.50;4826472;29;20073;-90
2021/08/24 15:03:20;;;;;;;45.70;7.32;;;;;;;19.97;40.10;99897.25;4839559;29;20049;-85
2021/08/24 15:05:51;;;;;;;37.22;6.18;;;;;;;20.10;39.91;99915.38;4824870;29;20049;-84
2021/08/24 15:08:20;;;;;;;21.48;5.70;;;;;;;20.12;39.49;99926.91;4842248;29;20046;-86
2021/08/24 15:10:58;;;;;;;33.30;5.72;;;;;;;20.02;40.28;99918.34;4841862;29;20141;-88
2021/08/24 15:13:28;;;;;;;45.85;6.53;;;;;;;20.09;39.82;99930.41;4842523;29;20132;-88
2021/08/24 15:15:54;;;;;;;28.77;5.75;;;;;;;20.09;40.24;99929.63;4841826;29;20500;-78
2021/08/24 15:18:45;;;;;;;34.13;5.93;;;;;;;19.97;40.75;99921.38;4841817;29;20053;-89
2021/08/24 15:21:11;;;;;;;26.27;6.00;;;;;;;19.81;40.99;99900.06;4840648;29;20483;-86
2021/08/24 15:23:38;;;;;;;31.15;6.88;;;;;;;19.81;40.61;99913.91;4840399;29;20042;-86
2021/08/24 15:26:13;;;;;;;17.83;5.63;;;;;;;19.78;40.98;99925.75;4842021;29;20056;-85
2021/08/24 15:28:40;;;;;;;38.38;5.80;;;;;;;19.71;42.83;99922.81;4857584;29;20554;-87
2021/08/24 15:31:19;;;;;;;37.00;6.23;;;;;;;19.74;42.91;99915.72;4841495;29;20066;-87
2021/08/24 15:33:49;;;;;;;47.47;7.03;;;;;;;19.48;42.23;99884.56;4842579;29;20398;-89
2021/08/24 15:36:18;;;;;;;28.10;5.85;;;;;;;19.34;41.79;99869.56;4830444;29;20094;-88
2021/08/24 15:38:45;;;;;;;92.47;8.13;;;;;;;19.62;43.41;99916.59;4842981;29;20046;-86
2021/08/24 15:41:16;;;;;;;31.50;5.55;;;;;;;19.28;43.32;99869.03;4840937;29;20053;-90
2021/08/24 15:44:00;;;;;;;40.42;6.38;;;;;;;19.54;44.15;99925.91;4826441;29;20046;-90
2021/08/24 15:46:30;;;;;;;56.58;7.88;;;;;;;19.49;44.58;99927.78;4840008;29;20140;-87
2021/08/24 15:48:59;;;;;;;50.10;6.60;;;;;;;19.44;44.50;99925.28;4842163;29;20036;-89
2021/08/24 15:51:28;;;;;;;22.33;5.80;;;;;;;19.31;44.80;99912.66;4840381;29;20065;-90
2021/08/24 15:53:56;;;;;;;27.80;5.78;;;;;;;19.14;45.19;99888.06;4825165;29;20050;-89
2021/08/24 15:56:23;;;;;;;34.75;6.60;;;;;;;19.29;44.57;99919.72;4822628;29;20137;-89
2021/08/24 15:58:49;;;;;;;20.80;5.78;;;;;;;19.18;44.76;99925.00;4823954;29;20044;-87
2021/08/24 16:01:16;;;;;;;43.85;5.85;;;;;;;19.06;44.51;99917.56;4825456;29;20073;-88
2021/08/24 16:03:45;;;;;;;35.17;6.45;;;;;;;19.17;44.36;99940.00;4832265;29;20090;-89
2021/08/24 16:06:12;;;;;;;59.10;8.20;;;;;;;19.03;44.93;99918.25;4848321;29;20050;-88
2021/08/24 16:08:38;;;;;;;31.00;7.28;;;;;;;19.02;45.11;99928.53;4842888;29;20085;-87
2021/08/24 16:11:07;;;;;;;18.42;5.20;;;;;;;18.81;43.76;99908.59;4849799;29;20041;-89
2021/08/24 16:13:33;;;;;;;24.20;5.03;;;;;;;18.93;42.57;99940.94;4842880;29;20057;-87
2021/08/24 16:15:59;;;;;;;31.35;6.20;;;;;;;18.91;43.45;99938.53;4840497;29;20041;-87
2021/08/24 16:18:28;;;;;;;21.27;5.50;;;;;;;18.82;44.31;99943.44;4844707;29;20073;-92
2021/08/24 16:20:57;;;;;;;21.08;6.25;;;;;;;18.69;43.56;99944.59;4845214;29;20424;-88
2021/08/24 16:23:27;;;;;;;;;;;;;;;18.57;43.77;99959.28;4837046;29;20403;-87
2021/08/24 16:25:55;;;;;;;20.08;4.82;;;;;;;18.45;44.75;99946.28;4840199;29;19924;-91
2021/08/24 16:28:21;;;;;;;17.95;4.50;;;;;;;18.46;45.05;99967.28;4840538;29;20046;-87
2021/08/24 16:30:47;;;;;;;25.67;5.80;;;;;;;18.49;45.27;99963.00;4850131;29;20033;-91
2021/08/24 16:33:12;;;;;;;26.80;4.67;;;;;;;18.41;46.60;99966.72;4842337;29;20090;-91
2021/08/24 16:35:43;;;;;;;19.75;3.90;;;;;;;18.40;46.36;99974.22;4848134;29;20041;-84
2021/08/24 16:38:12;;;;;;;36.85;6.00;;;;;;;18.39;46.94;99991.19;4840313;29;20499;-88
2021/08/24 16:40:44;;;;;;;17.80;5.75;;;;;;;18.27;47.07;99990.03;4845562;29;20064;-87
2021/08/24 16:43:12;;;;;;;16.98;4.85;;;;;;;18.26;45.90;99987.63;4844813;29;20490;-90
2021/08/24 16:45:39;;;;;;;21.75;4.25;;;;;;;18.13;46.87;99992.38;4863432;29;20102;-86
2021/08/24 16:48:06;;;;;;;8.18;4.30;;;;;;;18.03;46.96;99990.06;4868537;29;20054;-85
2021/08/24 16:50:32;;;;;;;12.52;3.85;;;;;;;18.01;47.14;99995.13;4860238;29;20050;-89
2021/08/24 16:52:58;;;;;;;13.37;4.07;;;;;;;17.86;46.64;99980.03;4859109;29;20030;-90
2021/08/24 16:55:26;;;;;;;8.77;4.05;;;;;;;17.86;46.99;99977.28;4862408;29;20278;-86
2021/08/24 16:57:52;;;;;;;10.27;4.10;;;;;;;17.89;47.41;100004.25;4861611;29;20070;-82
2021/08/24 17:00:21;;;;;;;7.30;3.67;;;;;;;17.82;47.35;99990.19;4864013;29;20033;-88
2021/08/24 17:02:49;;;;;;;13.57;4.03;;;;;;;17.85;47.42;100000.56;4870991;29;20038;-86
2021/08/24 17:05:18;;;;;;;14.75;4.28;;;;;;;17.78;48.08;100003.91;4863810;29;20206;-87
2021/08/24 17:07:45;;;;;;;16.55;4.32;;;;;;;17.77;50.83;99995.94;4851400;29;20070;-86
2021/08/24 17:10:12;;;;;;;15.65;4.45;;;;;;;17.76;51.92;99995.13;4862771;29;20022;-86
2021/08/24 17:12:42;;;;;;;19.15;4.85;;;;;;;17.68;52.43;99978.59;4873604;29;20017;-86
2021/08/24 17:15:11;;;;;;;13.57;3.85;;;;;;;17.65;52.82;99987.59;4864194;29;20059;-86
2021/08/24 17:17:38;;;;;;;17.20;5.03;;;;;;;17.30;53.18;99950.13;4863916;29;20018;-86
2021/08/24 17:20:11;;;;;;;16.88;4.72;;;;;;;17.58;54.65;99983.47;4860404;29;20101;-85
2021/08/24 17:22:38;;;;;;;23.05;4.88;;;;;;;17.37;55.59;99961.41;4865633;29;20044;-86
2021/08/24 17:25:04;;;;;;;;;;;;;;;17.49;55.04;99998.53;4874781;29;20065;-86
2021/08/24 17:27:31;;;;;;;28.38;5.45;;;;;;;17.42;55.61;99990.81;4865294;29;19912;-88
2021/08/24 17:29:56;;;;;;;19.67;5.70;;;;;;;17.16;57.06;99954.34;4850561;29;20266;-91
2021/08/24 17:32:22;;;;;;;15.20;5.05;;;;;;;17.33;56.64;99984.56;4862991;29;20072;-87
2021/08/24 17:34:48;;;;;;;19.52;9.50;;;;;;;17.35;57.15;99977.53;4843897;29;20674;-88